Time;durP1;ratioP1;P1;durP2;ratioP2;P2;SDS_P1;SDS_P2;PMS_P1;PMS_P2;Temp;Humidity;BMP_temperature;BMP_pressure;BME280_temperature;BME280_humidity;BME280_pressure;Samples;Min_cycle;Max_cycle;Signal;HPM_P1;HPM_P2
2024/04/02 00:00:41;;;;;;;4.53;3.28;;;9.30;99.90;;;;;;5076422;28;20447;-65
2024/04/02 00:03:09;;;;;;;4.13;3.72;;;9.20;99.90;;;;;;5076174;28;20736;-65
2024/04/02 00:05:36;;;;;;;5.97;3.15;;;9.20;99.90;;;;;;5076380;28;20203;-64
2024/04/02 00:08:04;;;;;;;3.90;3.37;;;9.10;99.90;;;;;;5078582;28;20224;-65
2024/04/02 00:10:31;;;;;;;3.95;3.50;;;9.10;99.90;;;;;;5078059;28;20543;-66
2024/04/02 00:12:57;;;;;;;3.75;3.42;;;9.10;99.90;;;;;;5079109;28;20231;-66
2024/04/02 00:15:24;;;;;;;4.22;3.92;;;9.00;99.90;;;;;;5082007;28;20227;-65
2024/04/02 00:17:52;;;;;;;4.57;4.18;;;9.00;99.90;;;;;;5078059;28;20204;-65
2024/04/02 00:20:18;;;;;;;7.97;4.35;;;9.00;99.90;;;;;;5076395;28;20197;-64
2024/04/02 00:22:45;;;;;;;3.92;3.63;;;9.00;99.90;;;;;;5075825;28;20303;-64
2024/04/02 00:25:11;;;;;;;5.13;3.83;;;9.00;99.90;;;;;;5075473;28;20227;-66
2024/04/02 00:27:38;;;;;;;4.00;3.57;;;9.00;99.90;;;;;;5075091;28;20682;-64
2024/04/02 00:30:05;;;;;;;4.47;4.07;;;9.00;99.90;;;;;;5079188;28;20444;-64
2024/04/02 00:32:33;;;;;;;5.45;4.25;;;9.00;99.90;;;;;;5079194;28;20251;-65
2024/04/02 00:34:59;;;;;;;8.88;4.85;;;9.00;99.90;;;;;;5087220;28;20221;-64
2024/04/02 00:37:26;;;;;;;4.87;4.37;;;9.00;99.90;;;;;;5087594;28;20227;-65
2024/04/02 00:39:51;;;;;;;4.88;4.38;;;8.90;99.90;;;;;;5089223;28;20201;-65
2024/04/02 00:42:19;;;;;;;6.20;4.57;;;8.90;99.90;;;;;;5089350;28;20313;-64
2024/04/02 00:44:44;;;;;;;9.88;5.05;;;8.90;99.90;;;;;;5086717;28;20230;-65
2024/04/02 00:47:13;;;;;;;5.30;4.33;;;8.90;99.90;;;;;;5084960;28;20198;-64
2024/04/02 00:49:41;;;;;;;5.53;4.93;;;8.80;99.90;;;;;;5086562;28;20206;-64
2024/04/02 00:52:08;;;;;;;6.13;5.53;;;8.80;99.90;;;;;;5085021;28;20256;-65
2024/04/02 00:54:34;;;;;;;5.90;5.35;;;8.80;99.90;;;;;;5082857;28;20216;-64
2024/04/02 00:57:01;;;;;;;4.97;4.43;;;8.90;99.90;;;;;;5084790;28;20221;-64
2024/04/02 00:59:29;;;;;;;6.65;5.10;;;8.90;99.90;;;;;;5084185;28;20440;-65
2024/04/02 01:01:55;;;;;;;5.65;5.15;;;8.90;99.90;;;;;;5083299;28;20271;-64
2024/04/02 01:04:21;;;;;;;6.00;5.50;;;9.00;99.90;;;;;;5082541;28;20200;-65
2024/04/02 01:06:50;;;;;;;8.80;5.00;;;9.00;99.90;;;;;;5082831;28;20200;-66
2024/04/02 01:09:18;;;;;;;6.57;5.07;;;9.00;99.90;;;;;;5082114;28;20444;-65
2024/04/02 01:11:45;;;;;;;6.47;5.38;;;9.00;99.90;;;;;;5082811;28;20225;-65
2024/04/02 01:14:11;;;;;;;5.28;4.75;;;9.10;99.90;;;;;;5085793;28;20206;-65
2024/04/02 01:16:42;;;;;;;6.13;5.43;;;9.10;99.90;;;;;;5084507;28;20293;-65
2024/04/02 01:19:08;;;;;;;6.45;4.28;;;9.10;99.90;;;;;;5077772;28;20191;-65
2024/04/02 01:21:35;;;;;;;6.23;5.17;;;9.10;99.90;;;;;;5077019;28;20262;-64
2024/04/02 01:24:02;;;;;;;5.50;5.00;;;9.10;99.90;;;;;;5076465;28;20979;-65
2024/04/02 01:26:31;;;;;;;6.07;5.45;;;9.10;99.90;;;;;;5076652;28;20202;-65
2024/04/02 01:28:58;;;;;;;5.28;4.65;;;9.10;99.90;;;;;;5076383;28;20211;-64
2024/04/02 01:31:25;;;;;;;5.00;4.50;;;9.20;99.90;;;;;;5076628;28;20348;-65
2024/04/02 01:33:51;;;;;;;5.10;4.60;;;9.20;99.90;;;;;;5076489;28;20255;-63
2024/04/02 01:36:18;;;;;;;4.63;4.20;;;9.20;99.90;;;;;;5076032;28;20222;-64
2024/04/02 01:38:44;;;;;;;5.70;5.20;;;9.20;99.90;;;;;;5077998;28;20203;-65
2024/04/02 01:41:10;;;;;;;5.27;4.47;;;9.20;99.90;;;;;;5077035;28;20218;-64
2024/04/02 01:43:38;;;;;;;6.70;5.82;;;9.20;99.90;;;;;;5078893;28;20455;-65
2024/04/02 01:46:05;;;;;;;7.13;4.88;;;9.20;99.90;;;;;;5077775;28;20199;-64
2024/04/02 01:48:31;;;;;;;11.90;5.03;;;9.20;99.90;;;;;;5076459;28;20215;-65
2024/04/02 01:50:57;;;;;;;5.70;4.77;;;9.20;99.90;;;;;;5076507;28;20200;-64
2024/04/02 01:53:23;;;;;;;6.35;4.72;;;9.20;99.90;;;;;;5076112;28;20221;-64
2024/04/02 01:55:51;;;;;;;5.07;4.63;;;9.20;99.90;;;;;;5075954;28;20261;-64
2024/04/02 01:58:16;;;;;;;5.95;5.35;;;9.20;99.90;;;;;;5076122;28;20208;-65
2024/04/02 02:00:45;;;;;;;5.30;4.90;;;9.30;99.90;;;;;;5076438;28;20572;-64
2024/04/02 02:03:10;;;;;;;8.07;5.18;;;9.30;99.90;;;;;;5077373;28;20223;-64
2024/04/02 02:05:37;;;;;;;5.90;4.67;;;9.30;99.90;;;;;;5076739;28;20202;-64
2024/04/02 02:08:05;;;;;;;5.45;4.63;;;9.30;99.90;;;;;;5076148;28;20207;-64
2024/04/02 02:10:33;;;;;;;5.20;4.70;;;9.30;99.90;;;;;;5076591;28;20199;-65
2024/04/02 02:12:59;;;;;;;8.88;5.30;;;9.30;99.90;;;;;;5075906;28;20576;-63
2024/04/02 02:15:26;;;;;;;6.80;4.90;;;9.30;99.90;;;;;;5075728;28;20745;-65
2024/04/02 02:17:53;;;;;;;9.50;4.80;;;9.30;99.90;;;;;;5079952;28;20471;-63
2024/04/02 02:20:20;;;;;;;5.67;4.60;;;9.30;99.90;;;;;;5081379;28;20810;-64
2024/04/02 02:22:46;;;;;;;7.40;4.93;;;9.30;99.90;;;;;;5079493;28;20467;-64
2024/04/02 02:25:13;;;;;;;8.65;5.18;;;9.30;99.90;;;;;;5075338;28;20451;-64
2024/04/02 02:27:39;;;;;;;8.57;5.03;;;9.20;99.90;;;;;;5075469;28;20209;-65
2024/04/02 02:30:07;;;;;;;7.27;5.57;;;9.20;99.90;;;;;;5075400;28;20198;-64
2024/04/02 02:32:33;;;;;;;6.43;5.28;;;9.10;99.90;;;;;;5080814;28;20466;-65
2024/04/02 02:35:01;;;;;;;8.27;5.17;;;9.10;99.90;;;;;;5085284;28;20269;-64
2024/04/02 02:37:27;;;;;;;5.80;5.20;;;9.10;99.90;;;;;;5082290;28;20232;-64
2024/04/02 02:39:54;;;;;;;7.20;4.83;;;9.00;99.90;;;;;;5081308;28;20199;-65
2024/04/02 02:42:20;;;;;;;6.65;4.70;;;9.00;99.90;;;;;;5078626;28;20985;-64
2024/04/02 02:44:46;;;;;;;7.50;5.67;;;9.10;99.90;;;;;;5077136;28;20212;-65
2024/04/02 02:47:12;;;;;;;8.25;5.07;;;9.00;99.90;;;;;;5076804;28;20203;-65
2024/04/02 02:49:39;;;;;;;5.80;5.30;;;9.00;99.90;;;;;;5076795;28;20214;-64
2024/04/02 02:52:06;;;;;;;5.13;4.65;;;9.00;99.90;;;;;;5075818;28;20274;-64
2024/04/02 02:54:33;;;;;;;5.50;5.00;;;9.00;99.90;;;;;;5075671;28;20220;-65
2024/04/02 02:56:59;;;;;;;7.25;5.35;;;8.90;99.90;;;;;;5075454;28;20226;-63
2024/04/02 02:59:26;;;;;;;7.17;4.87;;;8.90;99.90;;;;;;5075101;28;20577;-64
2024/04/02 03:01:51;;;;;;;8.52;5.60;;;8.80;99.90;;;;;;5075916;28;20225;-64
2024/04/02 03:04:19;;;;;;;7.13;5.40;;;8.70;99.90;;;;;;5075204;28;20209;-64
2024/04/02 03:06:44;;;;;;;7.55;5.38;;;8.70;99.90;;;;;;5075518;28;20439;-65
2024/04/02 03:09:12;;;;;;;6.40;5.60;;;8.70;99.90;;;;;;5074952;28;20687;-64
2024/04/02 03:11:39;;;;;;;6.72;5.97;;;8.70;99.90;;;;;;5074672;28;20239;-64
2024/04/02 03:14:06;;;;;;;9.32;5.20;;;8.60;99.90;;;;;;5074935;28;20221;-63
2024/04/02 03:16:31;;;;;;;6.38;5.50;;;8.60;99.90;;;;;;5074690;28;20227;-63
2024/04/02 03:18:58;;;;;;;8.33;5.30;;;8.60;99.90;;;;;;5074798;28;20205;-64
2024/04/02 03:21:24;;;;;;;6.95;4.82;;;8.60;99.90;;;;;;5074765;28;20204;-63
2024/04/02 03:23:51;;;;;;;6.00;5.23;;;8.60;99.90;;;;;;5074736;28;20682;-65
2024/04/02 03:26:18;;;;;;;7.18;4.95;;;8.70;99.90;;;;;;5074634;28;20198;-64
2024/04/02 03:28:44;;;;;;;6.15;4.90;;;8.60;99.90;;;;;;5074318;28;20255;-64
2024/04/02 03:31:10;;;;;;;4.60;4.00;;;8.60;99.90;;;;;;5074556;28;20575;-64
2024/04/02 03:33:37;;;;;;;4.37;3.97;;;8.60;99.90;;;;;;5074351;28;20217;-65
2024/04/02 03:36:04;;;;;;;4.43;3.95;;;8.60;99.90;;;;;;5074099;28;20221;-64
2024/04/02 03:38:32;;;;;;;3.50;2.90;;;8.70;99.90;;;;;;5074629;28;20196;-63
2024/04/02 03:41:07;;;;;;;4.53;4.10;;;8.70;99.90;;;;;;5074971;28;20201;-64
2024/04/02 03:43:36;;;;;;;5.25;3.50;;;8.70;99.90;;;;;;5074739;28;20298;-64
2024/04/02 03:46:03;;;;;;;6.82;4.00;;;8.70;99.90;;;;;;5074386;28;20667;-63
2024/04/02 03:48:29;;;;;;;4.20;3.70;;;8.70;99.90;;;;;;5075054;28;20203;-63
2024/04/02 03:50:56;;;;;;;4.20;3.30;;;8.70;99.90;;;;;;5075566;28;20255;-65
2024/04/02 03:53:22;;;;;;;6.05;3.92;;;8.70;99.90;;;;;;5075100;28;20459;-63
2024/04/02 03:55:48;;;;;;;5.87;3.50;;;8.60;99.90;;;;;;5074910;28;20576;-63
2024/04/02 03:58:14;;;;;;;4.18;3.40;;;8.60;99.90;;;;;;5074714;28;20203;-63
2024/04/02 04:00:44;;;;;;;4.20;3.80;;;8.60;99.90;;;;;;5075292;28;20653;-64
2024/04/02 04:03:10;;;;;;;5.25;4.00;;;8.60;99.90;;;;;;5074098;28;20227;-64
2024/04/02 04:05:37;;;;;;;8.15;4.70;;;8.50;99.90;;;;;;5074859;28;20208;-63
2024/04/02 04:08:03;;;;;;;6.55;4.18;;;8.50;99.90;;;;;;5074726;28;20193;-63
2024/04/02 04:13:28;;;;;;;4.90;4.40;;;8.50;99.90;;;;;;5093824;28;20969;-64
2024/04/02 04:15:54;;;;;;;6.47;5.15;;;8.50;99.90;;;;;;5097227;28;20229;-64
2024/04/02 04:18:22;;;;;;;8.55;5.63;;;8.50;99.90;;;;;;5100517;28;20237;-65
2024/04/02 04:20:51;;;;;;;5.97;5.38;;;8.40;99.90;;;;;;5098744;28;20200;-64
2024/04/02 04:23:18;;;;;;;6.95;6.25;;;8.40;99.90;;;;;;5094467;28;20265;-64
2024/04/02 04:25:44;;;;;;;6.80;6.10;;;8.40;99.90;;;;;;5093778;28;20203;-65
2024/04/02 04:28:11;;;;;;;7.70;6.30;;;8.40;99.90;;;;;;5095199;28;20196;-65
2024/04/02 04:30:38;;;;;;;9.40;7.32;;;8.40;99.90;;;;;;5093218;28;20449;-64
2024/04/02 04:33:05;;;;;;;7.05;6.35;;;8.50;99.90;;;;;;5092082;28;20280;-65
2024/04/02 04:35:32;;;;;;;7.97;7.18;;;8.50;99.90;;;;;;5091743;28;20203;-65
2024/04/02 04:37:59;;;;;;;7.18;6.43;;;8.50;99.90;;;;;;5092214;28;20293;-63
2024/04/02 04:40:25;;;;;;;7.80;6.80;;;8.50;99.90;;;;;;5092005;28;20203;-64
2024/04/02 04:42:52;;;;;;;6.53;5.83;;;8.50;99.90;;;;;;5092167;28;20681;-64
2024/04/02 04:45:17;;;;;;;7.40;6.80;;;8.60;99.90;;;;;;5092438;28;20206;-63
2024/04/02 04:47:45;;;;;;;6.30;5.80;;;8.70;99.90;;;;;;5092612;28;20277;-65
2024/04/02 04:50:11;;;;;;;6.00;5.25;;;8.70;99.90;;;;;;5094064;28;20677;-64
2024/04/02 04:52:38;;;;;;;5.17;4.67;;;8.70;99.90;;;;;;5099507;28;20248;-64
2024/04/02 04:55:04;;;;;;;5.35;4.75;;;8.80;99.90;;;;;;5101017;28;20214;-64
2024/04/02 04:57:30;;;;;;;5.80;5.30;;;8.80;99.90;;;;;;5100542;28;20208;-64
2024/04/02 04:59:56;;;;;;;5.57;4.80;;;8.80;99.90;;;;;;5097105;28;20210;-63
2024/04/02 05:02:23;;;;;;;6.97;5.60;;;8.80;99.90;;;;;;5095875;28;20222;-63
2024/04/02 05:04:50;;;;;;;7.43;5.40;;;8.70;99.90;;;;;;5096520;28;20277;-64
2024/04/02 05:07:25;;;;;;;6.05;5.30;;;8.70;99.90;;;;;;5098300;28;20203;-64
2024/04/02 05:09:51;;;;;;;6.05;4.93;;;8.70;99.90;;;;;;5098270;28;20210;-65
2024/04/02 05:12:18;;;;;;;5.60;4.78;;;8.70;99.90;;;;;;5098093;28;20256;-64
2024/04/02 05:14:44;;;;;;;5.80;5.30;;;8.60;99.90;;;;;;5092619;28;20208;-62
2024/04/02 05:17:11;;;;;;;5.77;5.27;;;8.70;99.90;;;;;;5092278;28;20201;-63
2024/04/02 05:19:37;;;;;;;5.68;5.15;;;8.70;99.90;;;;;;5090935;28;20930;-64
2024/04/02 05:22:06;;;;;;;5.87;5.20;;;8.70;99.90;;;;;;5091404;28;20265;-64
2024/04/02 05:24:32;;;;;;;7.82;5.47;;;8.70;99.90;;;;;;5080248;28;20554;-64
2024/04/02 05:26:59;;;;;;;5.60;5.10;;;8.70;99.90;;;;;;5078241;28;20221;-65
2024/04/02 05:29:24;;;;;;;6.82;5.38;;;8.80;99.90;;;;;;5077383;28;20442;-64
2024/04/02 05:31:51;;;;;;;6.87;6.20;;;8.80;99.90;;;;;;5077670;28;20239;-63
2024/04/02 05:34:17;;;;;;;6.95;5.75;;;8.90;99.90;;;;;;5079744;28;20212;-63
2024/04/02 05:36:44;;;;;;;6.53;5.93;;;8.90;99.90;;;;;;5079964;28;20201;-63
2024/04/02 05:39:11;;;;;;;6.43;5.47;;;9.00;99.90;;;;;;5079656;28;20216;-64
2024/04/02 05:41:38;;;;;;;6.32;5.82;;;9.10;99.90;;;;;;5078013;28;20193;-65
2024/04/02 05:44:04;;;;;;;7.93;6.13;;;9.20;99.90;;;;;;5078489;28;20204;-64
2024/04/02 05:46:31;;;;;;;6.80;6.20;;;9.30;99.90;;;;;;5077230;28;20205;-64
2024/04/02 05:48:56;;;;;;;7.80;6.20;;;9.30;99.90;;;;;;5076866;28;20435;-64
2024/04/02 05:51:23;;;;;;;6.90;5.97;;;9.40;99.90;;;;;;5077975;28;20534;-64
2024/04/02 05:53:49;;;;;;;7.57;6.22;;;9.40;99.90;;;;;;5077263;28;20236;-63
2024/04/02 05:56:17;;;;;;;7.73;5.40;;;9.40;99.90;;;;;;5077171;28;20199;-64
2024/04/02 05:58:43;;;;;;;6.60;6.00;;;9.30;99.90;;;;;;5077507;28;20203;-64
2024/04/02 06:01:10;;;;;;;6.50;5.23;;;9.30;99.90;;;;;;5078437;28;20253;-63
2024/04/02 06:03:36;;;;;;;6.35;4.35;;;9.30;99.90;;;;;;5076183;28;20288;-63
2024/04/02 06:06:03;;;;;;;5.57;5.07;;;9.30;99.90;;;;;;5076856;28;20222;-63
2024/04/02 06:08:29;;;;;;;5.27;4.40;;;9.30;99.90;;;;;;5076750;28;20800;-64
2024/04/02 06:10:56;;;;;;;5.57;3.90;;;9.30;99.90;;;;;;5076255;28;20446;-64
2024/04/02 06:13:23;;;;;;;6.88;3.80;;;9.30;99.90;;;;;;5075830;28;20231;-63
2024/04/02 06:15:50;;;;;;;6.30;4.30;;;9.40;99.90;;;;;;5076363;28;20208;-65
2024/04/02 06:18:16;;;;;;;4.53;3.80;;;9.40;99.90;;;;;;5076644;28;20442;-65
2024/04/02 06:20:42;;;;;;;5.80;3.50;;;9.50;99.90;;;;;;5076357;28;20305;-65
2024/04/02 06:23:08;;;;;;;4.25;3.85;;;9.60;99.90;;;;;;5076267;28;20224;-64
2024/04/02 06:25:35;;;;;;;4.07;3.53;;;9.60;99.90;;;;;;5076782;28;20226;-63
2024/04/02 06:28:01;;;;;;;4.23;3.70;;;9.70;99.90;;;;;;5076705;28;20674;-63
2024/04/02 06:30:29;;;;;;;4.87;4.17;;;9.70;99.90;;;;;;5075599;28;20543;-64
2024/04/02 06:32:55;;;;;;;5.10;3.70;;;9.80;99.90;;;;;;5075323;28;20252;-63
2024/04/02 06:35:21;;;;;;;4.70;4.00;;;9.90;99.90;;;;;;5075974;28;20443;-64
2024/04/02 06:37:48;;;;;;;4.17;3.50;;;9.90;99.90;;;;;;5077114;28;20454;-63
2024/04/02 06:40:14;;;;;;;3.93;3.60;;;10.00;99.90;;;;;;5076324;28;20201;-64
2024/04/02 06:42:41;;;;;;;6.30;3.43;;;10.10;99.90;;;;;;5076723;28;20464;-64
2024/04/02 06:45:07;;;;;;;5.10;4.30;;;10.10;99.90;;;;;;5076249;28;20447;-64
2024/04/02 06:47:35;;;;;;;4.83;4.33;;;10.20;99.90;;;;;;5076551;28;20813;-63
2024/04/02 06:50:01;;;;;;;6.93;5.10;;;10.20;99.90;;;;;;5077039;28;20442;-63
2024/04/02 06:52:27;;;;;;;5.93;5.43;;;10.30;99.90;;;;;;5077357;28;20528;-64
2024/04/02 06:54:53;;;;;;;8.63;6.10;;;10.30;99.90;;;;;;5078793;28;20283;-63
2024/04/02 06:57:20;;;;;;;6.60;6.00;;;10.40;99.90;;;;;;5078675;28;21003;-63
2024/04/02 06:59:45;;;;;;;8.30;6.73;;;10.40;99.90;;;;;;5077525;28;20205;-61
2024/04/02 07:02:12;;;;;;;6.40;5.77;;;10.50;99.90;;;;;;5077118;28;20831;-63
2024/04/02 07:04:39;;;;;;;6.47;5.87;;;10.60;99.90;;;;;;5076983;28;20196;-63
2024/04/02 07:07:06;;;;;;;6.90;6.37;;;10.70;99.90;;;;;;5077760;28;20443;-63
2024/04/02 07:09:33;;;;;;;7.20;6.50;;;10.80;99.90;;;;;;5076264;28;20443;-64
2024/04/02 07:12:00;;;;;;;7.50;6.90;;;10.90;99.90;;;;;;5076549;28;20490;-63
2024/04/02 07:14:26;;;;;;;6.40;5.80;;;11.10;99.90;;;;;;5076423;28;20450;-63
2024/04/02 07:16:55;;;;;;;6.60;6.00;;;11.10;99.90;;;;;;5077407;28;20442;-63
2024/04/02 07:19:23;;;;;;;6.40;5.90;;;11.10;99.90;;;;;;5077137;28;20211;-65
2024/04/02 07:21:50;;;;;;;7.30;6.70;;;11.20;99.90;;;;;;5077204;28;20459;-65
2024/04/02 07:24:17;;;;;;;8.63;6.27;;;11.20;99.90;;;;;;5079173;28;20967;-63
2024/04/02 07:26:44;;;;;;;7.00;6.30;;;11.10;99.90;;;;;;5078244;28;20942;-63
2024/04/02 07:29:10;;;;;;;6.10;5.60;;;11.10;99.90;;;;;;5076038;28;20454;-64
2024/04/02 07:31:36;;;;;;;7.07;6.43;;;11.10;99.90;;;;;;5076321;28;20447;-63
2024/04/02 07:34:03;;;;;;;6.37;5.80;;;11.20;99.90;;;;;;5076423;28;20721;-63
2024/04/02 07:36:29;;;;;;;7.33;6.30;;;11.20;99.90;;;;;;5077853;28;20455;-63
2024/04/02 07:38:56;;;;;;;7.47;6.77;;;11.20;99.90;;;;;;5076238;28;20438;-65
2024/04/02 07:41:23;;;;;;;6.80;5.60;;;11.30;99.90;;;;;;5077379;28;20524;-64
2024/04/02 07:43:49;;;;;;;6.70;6.20;;;11.20;99.90;;;;;;5076766;28;20465;-63
2024/04/02 07:46:16;;;;;;;8.43;5.73;;;11.30;99.90;;;;;;5076385;28;20933;-63
2024/04/02 07:48:42;;;;;;;6.43;5.83;;;11.30;99.90;;;;;;5075563;28;20283;-64
2024/04/02 07:51:09;;;;;;;5.90;5.40;;;11.40;99.90;;;;;;5075371;28;20435;-63
2024/04/02 07:53:35;;;;;;;5.97;5.37;;;11.50;99.90;;;;;;5075068;28;20482;-64
2024/04/02 07:56:03;;;;;;;6.80;6.17;;;11.60;99.90;;;;;;5074791;28;20443;-62
2024/04/02 07:58:29;;;;;;;6.30;5.80;;;11.70;99.90;;;;;;5075073;28;20443;-63
2024/04/02 08:00:56;;;;;;;5.80;5.40;;;11.70;99.90;;;;;;5075233;28;20439;-64
2024/04/02 08:03:21;;;;;;;6.40;5.63;;;11.70;99.90;;;;;;5074671;28;20221;-65
2024/04/02 08:05:56;;;;;;;6.13;5.60;;;11.70;99.90;;;;;;5075148;28;20840;-64
2024/04/02 08:08:22;;;;;;;5.87;5.37;;;11.80;99.90;;;;;;5076626;28;20249;-63
2024/04/02 08:10:49;;;;;;;5.87;5.37;;;11.90;99.90;;;;;;5075398;28;20439;-63
2024/04/02 08:13:16;;;;;;;6.50;5.90;;;12.00;99.90;;;;;;5075178;28;20235;-63
2024/04/02 08:15:43;;;;;;;5.90;5.47;;;12.10;99.90;;;;;;5074588;28;20450;-63
2024/04/02 08:18:09;;;;;;;6.50;5.90;;;12.20;99.90;;;;;;5074893;28;20450;-63
2024/04/02 08:20:36;;;;;;;10.50;5.97;;;12.20;99.90;;;;;;5074992;28;20443;-63
2024/04/02 08:23:01;;;;;;;5.83;5.40;;;12.20;99.90;;;;;;5075201;28;20213;-63
2024/04/02 08:25:28;;;;;;;8.00;5.63;;;12.30;99.90;;;;;;5076046;28;20909;-63
2024/04/02 08:27:54;;;;;;;5.67;5.20;;;12.30;99.90;;;;;;5075226;28;20517;-62
2024/04/02 08:30:22;;;;;;;5.67;5.27;;;12.40;99.90;;;;;;5075471;28;20446;-63
2024/04/02 08:32:49;;;;;;;5.73;5.13;;;12.50;99.90;;;;;;5075593;28;20223;-64
2024/04/02 08:35:14;;;;;;;5.90;5.50;;;12.60;99.90;;;;;;5075659;28;20441;-64
2024/04/02 08:37:41;;;;;;;5.40;5.00;;;12.60;99.90;;;;;;5076215;28;20534;-64
2024/04/02 08:40:09;;;;;;;5.93;5.50;;;12.50;99.90;;;;;;5075894;28;20439;-62
2024/04/02 08:42:37;;;;;;;6.70;5.57;;;12.40;99.90;;;;;;5075245;28;20466;-62
2024/04/02 08:45:05;;;;;;;9.40;5.60;;;12.30;99.90;;;;;;5075856;28;20482;-64
2024/04/02 08:47:35;;;;;;;5.40;4.90;;;12.40;99.90;;;;;;5076073;28;20911;-64
2024/04/02 08:50:03;;;;;;;5.90;5.40;;;12.40;99.90;;;;;;5078929;28;20439;-62
2024/04/02 08:52:29;;;;;;;6.20;5.43;;;12.40;99.90;;;;;;5079811;28;20483;-64
2024/04/02 08:54:55;;;;;;;5.77;5.30;;;12.40;99.90;;;;;;5075447;28;20435;-63
2024/04/02 08:57:22;;;;;;;6.77;6.03;;;12.50;99.90;;;;;;5073487;28;20447;-63
2024/04/02 08:59:48;;;;;;;7.80;5.40;;;12.60;99.90;;;;;;5076150;28;20204;-63
2024/04/02 09:02:16;;;;;;;8.20;5.30;;;12.50;99.90;;;;;;5077095;28;20463;-63
2024/04/02 09:04:43;;;;;;;5.83;5.23;;;12.40;99.90;;;;;;5077093;28;20933;-63
2024/04/02 09:07:11;;;;;;;5.90;5.30;;;12.30;99.90;;;;;;5078219;28;20443;-63
2024/04/02 09:09:36;;;;;;;6.73;5.00;;;12.40;99.90;;;;;;5077222;28;20443;-62
2024/04/02 09:12:05;;;;;;;5.57;5.03;;;12.50;99.90;;;;;;5083634;28;20478;-64
2024/04/02 09:14:33;;;;;;;7.47;6.77;;;12.60;99.90;;;;;;5082929;28;20204;-64
2024/04/02 09:17:00;;;;;;;5.20;4.70;;;12.80;99.90;;;;;;5080666;28;20774;-63
2024/04/02 09:19:26;;;;;;;6.63;6.07;;;12.90;99.90;;;;;;5079455;28;20434;-62
2024/04/02 09:21:54;;;;;;;5.07;4.63;;;13.00;99.90;;;;;;5078205;28;20469;-63
2024/04/02 09:24:20;;;;;;;5.80;5.30;;;13.20;99.90;;;;;;5077137;28;20666;-64
2024/04/02 09:26:47;;;;;;;5.70;5.20;;;13.30;99.90;;;;;;5077211;28;20439;-64
2024/04/02 09:29:13;;;;;;;6.37;5.13;;;13.50;99.90;;;;;;5076583;28;20967;-64
2024/04/02 09:31:40;;;;;;;6.20;4.77;;;13.80;99.70;;;;;;5081971;28;20438;-64
2024/04/02 09:34:08;;;;;;;4.83;4.40;;;13.90;98.80;;;;;;5082769;28;20582;-64
2024/04/02 09:36:42;;;;;;;4.80;4.40;;;14.00;97.70;;;;;;5086418;28;20446;-65
2024/04/02 09:39:11;;;;;;;5.73;4.83;;;14.00;95.80;;;;;;5086230;28;20445;-63
2024/04/02 09:41:42;;;;;;;4.63;4.33;;;14.00;95.50;;;;;;5081647;28;20451;-65
2024/04/02 09:44:10;;;;;;;4.73;4.13;;;14.00;95.00;;;;;;5080735;28;20435;-64
2024/04/02 09:46:40;;;;;;;4.90;4.43;;;14.00;94.50;;;;;;5079513;28;20496;-64
2024/04/02 09:49:08;;;;;;;5.70;4.70;;;13.90;94.50;;;;;;5078703;28;20435;-65
2024/04/02 09:51:35;;;;;;;5.70;4.67;;;13.90;94.50;;;;;;5077505;28;20443;-64
2024/04/02 09:54:03;;;;;;;5.63;4.27;;;13.90;94.00;;;;;;5076887;28;21016;-63
2024/04/02 09:56:32;;;;;;;5.20;4.80;;;13.80;93.50;;;;;;5077044;28;20454;-65
2024/04/02 09:58:58;;;;;;;6.23;4.10;;;13.80;92.80;;;;;;5076798;28;20451;-65
2024/04/02 10:01:27;;;;;;;5.50;4.97;;;13.70;92.80;;;;;;5076242;28;20443;-63
2024/04/02 10:03:56;;;;;;;5.60;5.20;;;13.70;93.00;;;;;;5075974;28;20493;-65
2024/04/02 10:06:23;;;;;;;4.93;4.43;;;13.70;92.80;;;;;;5076041;28;20496;-64
2024/04/02 10:08:58;;;;;;;4.90;4.50;;;13.50;91.20;;;;;;5076065;28;20447;-64
2024/04/02 10:11:32;;;;;;;8.20;6.73;;;13.40;92.00;;;;;;5076447;28;20565;-64
2024/04/02 10:14:03;;;;;;;7.20;4.90;;;13.30;93.00;;;;;;5076180;28;20834;-64
2024/04/02 10:16:32;;;;;;;6.43;5.70;;;13.30;93.70;;;;;;5076689;28;20427;-64
2024/04/02 10:19:00;;;;;;;6.40;5.90;;;13.30;93.80;;;;;;5078282;28;20439;-65
2024/04/02 10:21:27;;;;;;;7.90;5.33;;;13.30;94.10;;;;;;5078757;28;20447;-64
2024/04/02 10:23:54;;;;;;;6.53;5.67;;;13.40;94.30;;;;;;5077688;28;20443;-64
2024/04/02 10:26:22;;;;;;;6.80;5.30;;;13.40;94.20;;;;;;5076980;28;20470;-65
2024/04/02 10:28:54;;;;;;;5.60;5.00;;;13.50;94.50;;;;;;5076174;28;20443;-64
2024/04/02 10:31:20;;;;;;;6.10;5.00;;;13.60;94.50;;;;;;5077596;28;20428;-65
2024/04/02 10:33:48;;;;;;;9.43;5.60;;;13.60;94.40;;;;;;5076678;28;20490;-65
2024/04/02 10:36:14;;;;;;;13.17;6.13;;;13.60;94.10;;;;;;5076619;28;20529;-66
2024/04/02 10:38:40;;;;;;;4.97;4.30;;;13.50;94.20;;;;;;5076248;28;20449;-64
2024/04/02 10:41:07;;;;;;;5.83;3.97;;;13.50;93.80;;;;;;5076511;28;20794;-64
2024/04/02 10:43:33;;;;;;;9.40;4.93;;;13.50;93.20;;;;;;5076252;28;20217;-63
2024/04/02 10:46:01;;;;;;;9.70;4.70;;;13.40;93.00;;;;;;5077929;28;21028;-64
2024/04/02 10:48:27;;;;;;;10.80;4.60;;;13.40;93.70;;;;;;5079136;28;20205;-63
2024/04/02 10:50:54;;;;;;;6.00;4.80;;;13.60;93.80;;;;;;5078792;28;20541;-63
2024/04/02 10:53:19;;;;;;;4.93;4.50;;;13.80;93.80;;;;;;5077867;28;20225;-65
2024/04/02 10:55:46;;;;;;;5.00;3.93;;;14.20;92.30;;;;;;5076194;28;20435;-64
2024/04/02 10:58:14;;;;;;;3.80;3.50;;;14.40;90.70;;;;;;5076467;28;20211;-65
2024/04/02 11:00:40;;;;;;;4.93;3.80;;;14.50;87.80;;;;;;5077258;28;20455;-64
2024/04/02 11:03:08;;;;;;;5.87;4.57;;;14.50;86.40;;;;;;5077159;28;20463;-64
2024/04/02 11:05:36;;;;;;;4.70;4.30;;;14.40;85.80;;;;;;5077471;28;21036;-65
2024/04/02 11:08:02;;;;;;;5.90;4.00;;;14.40;86.80;;;;;;5077593;28;20454;-65
2024/04/02 11:10:29;;;;;;;5.00;4.50;;;14.40;87.10;;;;;;5078266;28;20439;-65
2024/04/02 11:12:55;;;;;;;5.27;4.77;;;14.30;87.00;;;;;;5076497;28;20509;-64
2024/04/02 11:15:22;;;;;;;7.20;4.87;;;14.20;86.60;;;;;;5075918;28;20941;-66
2024/04/02 11:17:47;;;;;;;8.80;5.80;;;14.00;86.40;;;;;;5076273;28;20212;-63
2024/04/02 11:20:15;;;;;;;6.60;5.40;;;13.60;88.00;;;;;;5075559;28;20443;-65
2024/04/02 11:25:26;;;;;;;4.53;4.13;;;13.40;91.20;;;;;;5075411;28;20486;-65
2024/04/02 11:28:04;;;;;;;9.80;4.60;;;13.30;91.30;;;;;;5075631;28;20450;-64
2024/04/02 11:30:31;;;;;;;5.43;4.90;;;13.30;91.70;;;;;;5075606;28;20431;-63
2024/04/02 11:32:57;;;;;;;5.93;5.20;;;13.30;92.00;;;;;;5075013;28;20479;-64
2024/04/02 11:35:25;;;;;;;5.07;4.50;;;13.50;92.10;;;;;;5075470;28;20453;-65
2024/04/02 11:37:51;;;;;;;5.43;4.60;;;13.60;91.60;;;;;;5075102;28;20197;-63
2024/04/02 11:40:17;;;;;;;5.17;4.60;;;13.80;91.50;;;;;;5074759;28;20449;-65
2024/04/02 11:42:43;;;;;;;5.30;4.60;;;14.00;90.80;;;;;;5075411;28;20232;-63
2024/04/02 11:45:11;;;;;;;8.33;4.67;;;14.00;90.00;;;;;;5075041;28;20887;-64
2024/04/02 11:47:37;;;;;;;7.10;4.80;;;14.00;88.50;;;;;;5076067;28;20439;-65
2024/04/02 11:50:04;;;;;;;8.90;5.80;;;13.90;88.10;;;;;;5075398;28;20512;-64
2024/04/02 11:52:34;;;;;;;7.50;5.47;;;13.90;89.00;;;;;;5075527;28;20463;-65
2024/04/02 11:55:01;;;;;;;5.33;4.60;;;14.00;89.80;;;;;;5077157;28;20530;-64
2024/04/02 12:00:14;;;;;;;4.40;4.00;;;14.00;86.90;;;;;;5081690;28;20901;-64
2024/04/02 12:02:42;;;;;;;14.33;4.57;;;13.80;87.30;;;;;;5085716;28;20510;-65
2024/04/02 12:05:10;;;;;;;6.83;4.13;;;13.60;88.70;;;;;;5083646;28;20439;-64
2024/04/02 12:07:39;;;;;;;4.90;3.50;;;13.40;89.90;;;;;;5077669;28;20601;-65
2024/04/02 12:10:07;;;;;;;6.30;4.07;;;13.30;90.10;;;;;;5076920;28;20761;-65
2024/04/02 12:12:33;;;;;;;10.30;4.77;;;13.10;90.40;;;;;;5075165;28;21016;-63
2024/04/02 12:15:02;;;;;;;9.10;4.50;;;13.10;90.70;;;;;;5075657;28;20486;-68
2024/04/02 12:17:28;;;;;;;7.90;3.90;;;13.00;90.80;;;;;;5085708;28;20950;-64
2024/04/02 12:19:56;;;;;;;9.73;4.97;;;13.10;90.80;;;;;;5084894;28;20439;-65
2024/04/02 12:22:22;;;;;;;8.73;4.20;;;13.20;90.40;;;;;;5080150;28;20540;-65
2024/04/02 12:24:50;;;;;;;4.60;3.27;;;13.20;90.10;;;;;;5079913;28;20442;-64
2024/04/02 12:27:16;;;;;;;5.73;3.23;;;13.30;89.90;;;;;;5077781;28;20439;-65
2024/04/02 12:29:43;;;;;;;3.50;3.20;;;13.30;88.40;;;;;;5076138;28;20916;-68
2024/04/02 12:32:11;;;;;;;3.70;2.73;;;13.30;86.60;;;;;;5076104;28;20557;-64
2024/04/02 12:34:39;;;;;;;7.57;2.33;;;13.40;86.20;;;;;;5078746;28;20474;-65
2024/04/02 12:37:05;;;;;;;4.97;3.27;;;13.40;84.70;;;;;;5079554;28;20617;-67
2024/04/02 12:39:34;;;;;;;6.13;2.43;;;13.50;82.30;;;;;;5079850;28;20438;-66
2024/04/02 12:42:03;;;;;;;3.50;2.60;;;13.60;80.70;;;;;;5078398;28;20463;-66
2024/04/02 12:44:30;;;;;;;4.20;2.47;;;13.70;79.70;;;;;;5079492;28;20497;-64
2024/04/02 12:46:57;;;;;;;6.13;3.07;;;14.00;78.80;;;;;;5079042;28;20447;-66
2024/04/02 12:49:24;;;;;;;3.80;2.57;;;14.10;77.70;;;;;;5078296;28;20454;-65
2024/04/02 12:51:50;;;;;;;5.37;3.30;;;14.20;77.30;;;;;;5078483;28;20976;-65
2024/04/02 12:54:17;;;;;;;7.70;4.07;;;14.10;75.60;;;;;;5078503;28;20473;-64
2024/04/02 12:56:43;;;;;;;8.13;3.57;;;14.10;74.00;;;;;;5085281;28;20449;-66
2024/04/02 12:59:12;;;;;;;3.93;3.53;;;13.90;73.80;;;;;;5084615;28;20459;-66